Sao Jorge — CSIA — position and weather

sailwx.info

Track history (hours):
 
Tides and Currents Weather Stations Pressure Air Temp Water Temp Dewpoint Dewpoint Depression Visibility Wind Speed Wind Dir Waves Ship Positions

Sao Jorge

Last reported at 2015-Feb-26 15:33 UTC. Time now 2015-Feb-27 07:36 UTC.
Position N 38°41' W 009°09'.

Length 59 m; draft 24.8 m.

Type: Passenger vessel. MMSI: 263701790.

Date/timePositionNaut miles runAvg speedWind from/ knotsBaromVisibWave heightAir tempDewpointWater temp
2015-Feb-26 15:33N 38°41' W 009°09'0 0.5
2015-Feb-26 14:33N 38°41' W 009°10'1 0.9
2015-Feb-26 13:33N 38°41' W 009°09'0 0.0
2015-Feb-26 11:28N 38°41' W 009°09'0 0.0
2015-Feb-26 10:33N 38°41' W 009°09'0 0.0
2015-Feb-26 09:33N 38°41' W 009°09'0 0.0
2015-Feb-25 15:34N 38°41' W 009°09'0 0.1
2015-Feb-25 14:34N 38°41' W 009°09'0 0.1
2015-Feb-25 13:33N 38°41' W 009°09'0 0.0
2015-Feb-25 12:21N 38°41' W 009°09'4 4.9
2015-Feb-25 11:33N 38°39' W 009°05'1 0.9
2015-Feb-25 10:34N 38°39' W 009°06'3 3.1
2015-Feb-25 09:34N 38°41' W 009°09'0 0.2
2015-Feb-25 08:33N 38°41' W 009°09'0 0.4
2015-Feb-25 07:33N 38°41' W 009°09'0 0.0
2015-Feb-24 19:33N 38°41' W 009°09'0 0.0
2015-Feb-23 11:34N 38°41' W 009°09'  
2015-Feb-19 07:12N 38°41' W 009°09'0 0.3
2015-Feb-19 06:32N 38°41' W 009°09'0 0.0
2015-Feb-18 17:32N 38°41' W 009°09'0 0.0
2015-Feb-18 16:33N 38°41' W 009°09'0 0.0
2015-Feb-18 15:33N 38°41' W 009°09'0 0.0
2015-Feb-18 14:32N 38°41' W 009°09'0 0.0
2015-Feb-18 13:33N 38°41' W 009°09'0 0.0
2015-Feb-18 12:32N 38°41' W 009°09'0 0.0
2015-Feb-18 11:33N 38°41' W 009°09'0 0.0
2015-Feb-18 10:33N 38°41' W 009°09'0 0.0
2015-Feb-18 09:33N 38°41' W 009°09'  
Track history (hours):
 
Tides and Currents Weather Stations Pressure Air Temp Water Temp Dewpoint Dewpoint Depression Visibility Wind Speed Wind Dir Waves Ship Positions

Sao Jorge

Last reported at 2015-Feb-26 15:33 UTC. Time now 2015-Feb-27 07:36 UTC.
Position N 38°41' W 009°09'.

Length 59 m; draft 24.8 m.

Type: Passenger vessel. MMSI: 263701790.

Date/timePositionNaut miles runAvg speedWind from/ knotsBaromVisibWave heightAir tempDewpointWater temp
2015-Feb-26 15:33N 38°41' W 009°09'0 0.5
2015-Feb-26 14:33N 38°41' W 009°10'1 0.9
2015-Feb-26 13:33N 38°41' W 009°09'0 0.0
2015-Feb-26 11:28N 38°41' W 009°09'0 0.0
2015-Feb-26 10:33N 38°41' W 009°09'0 0.0
2015-Feb-26 09:33N 38°41' W 009°09'0 0.0
2015-Feb-25 15:34N 38°41' W 009°09'0 0.1
2015-Feb-25 14:34N 38°41' W 009°09'0 0.1
2015-Feb-25 13:33N 38°41' W 009°09'0 0.0
2015-Feb-25 12:21N 38°41' W 009°09'4 4.9
2015-Feb-25 11:33N 38°39' W 009°05'1 0.9
2015-Feb-25 10:34N 38°39' W 009°06'3 3.1
2015-Feb-25 09:34N 38°41' W 009°09'0 0.2
2015-Feb-25 08:33N 38°41' W 009°09'0 0.4
2015-Feb-25 07:33N 38°41' W 009°09'0 0.0
2015-Feb-24 19:33N 38°41' W 009°09'0 0.0
2015-Feb-23 11:34N 38°41' W 009°09'  
2015-Feb-19 07:12N 38°41' W 009°09'0 0.3
2015-Feb-19 06:32N 38°41' W 009°09'0 0.0
2015-Feb-18 17:32N 38°41' W 009°09'0 0.0
2015-Feb-18 16:33N 38°41' W 009°09'0 0.0
2015-Feb-18 15:33N 38°41' W 009°09'0 0.0
2015-Feb-18 14:32N 38°41' W 009°09'0 0.0
2015-Feb-18 13:33N 38°41' W 009°09'0 0.0
2015-Feb-18 12:32N 38°41' W 009°09'0 0.0
2015-Feb-18 11:33N 38°41' W 009°09'0 0.0
2015-Feb-18 10:33N 38°41' W 009°09'0 0.0
2015-Feb-18 09:33N 38°41' W 009°09'  

Dump ship's entire track history